sensor_id;sensor_type;location;lat;lon;timestamp;P1;durP1;ratioP1;P2;durP2;ratioP2
55461;SDS011;41327;45.102;20.624;2023-11-18T00:00:00;7.85;;;5.60;;
55461;SDS011;41327;45.102;20.624;2023-11-18T00:02:26;6.68;;;5.32;;
55461;SDS011;41327;45.102;20.624;2023-11-18T00:04:52;6.30;;;3.85;;
55461;SDS011;41327;45.102;20.624;2023-11-18T00:07:17;11.75;;;5.85;;
55461;SDS011;41327;45.102;20.624;2023-11-18T00:09:43;12.48;;;6.82;;
55461;SDS011;41327;45.102;20.624;2023-11-18T00:12:11;9.63;;;4.90;;
55461;SDS011;41327;45.102;20.624;2023-11-18T00:14:37;9.40;;;6.18;;
55461;SDS011;41327;45.102;20.624;2023-11-18T00:17:03;12.95;;;6.35;;
55461;SDS011;41327;45.102;20.624;2023-11-18T00:19:29;12.82;;;6.15;;
55461;SDS011;41327;45.102;20.624;2023-11-18T00:21:55;16.83;;;9.50;;
55461;SDS011;41327;45.102;20.624;2023-11-18T00:24:20;190.00;;;75.60;;
55461;SDS011;41327;45.102;20.624;2023-11-18T00:26:46;83.45;;;38.40;;
55461;SDS011;41327;45.102;20.624;2023-11-18T00:29:11;67.53;;;28.75;;
55461;SDS011;41327;45.102;20.624;2023-11-18T00:31:37;103.53;;;43.45;;
55461;SDS011;41327;45.102;20.624;2023-11-18T00:34:03;124.95;;;57.97;;
55461;SDS011;41327;45.102;20.624;2023-11-18T00:36:28;61.42;;;32.08;;
55461;SDS011;41327;45.102;20.624;2023-11-18T00:38:54;51.97;;;28.40;;
55461;SDS011;41327;45.102;20.624;2023-11-18T00:41:20;18.20;;;13.00;;
55461;SDS011;41327;45.102;20.624;2023-11-18T00:43:46;10.70;;;6.93;;
55461;SDS011;41327;45.102;20.624;2023-11-18T00:46:12;11.10;;;6.47;;
55461;SDS011;41327;45.102;20.624;2023-11-18T00:48:38;11.23;;;7.20;;
55461;SDS011;41327;45.102;20.624;2023-11-18T00:51:05;15.68;;;9.25;;
55461;SDS011;41327;45.102;20.624;2023-11-18T00:53:31;10.15;;;6.32;;
55461;SDS011;41327;45.102;20.624;2023-11-18T00:55:56;13.32;;;7.13;;
55461;SDS011;41327;45.102;20.624;2023-11-18T00:58:22;9.20;;;5.40;;
55461;SDS011;41327;45.102;20.624;2023-11-18T01:00:48;7.45;;;4.80;;
55461;SDS011;41327;45.102;20.624;2023-11-18T01:03:13;14.88;;;11.77;;
55461;SDS011;41327;45.102;20.624;2023-11-18T01:05:39;13.18;;;9.15;;
55461;SDS011;41327;45.102;20.624;2023-11-18T01:08:04;12.68;;;9.07;;
55461;SDS011;41327;45.102;20.624;2023-11-18T01:10:30;14.25;;;10.13;;
55461;SDS011;41327;45.102;20.624;2023-11-18T01:12:56;11.85;;;8.02;;
55461;SDS011;41327;45.102;20.624;2023-11-18T01:15:23;11.00;;;6.03;;
55461;SDS011;41327;45.102;20.624;2023-11-18T01:17:48;39.47;;;26.05;;
55461;SDS011;41327;45.102;20.624;2023-11-18T01:20:14;94.05;;;43.85;;
55461;SDS011;41327;45.102;20.624;2023-11-18T01:22:46;160.30;;;68.97;;
55461;SDS011;41327;45.102;20.624;2023-11-18T01:25:12;122.40;;;51.75;;
55461;SDS011;41327;45.102;20.624;2023-11-18T01:27:37;123.72;;;46.35;;
55461;SDS011;41327;45.102;20.624;2023-11-18T01:30:05;287.05;;;116.22;;
55461;SDS011;41327;45.102;20.624;2023-11-18T01:32:31;244.20;;;103.25;;
55461;SDS011;41327;45.102;20.624;2023-11-18T01:34:56;102.30;;;52.58;;
55461;SDS011;41327;45.102;20.624;2023-11-18T01:37:22;98.10;;;54.70;;
55461;SDS011;41327;45.102;20.624;2023-11-18T01:39:48;30.40;;;19.17;;
55461;SDS011;41327;45.102;20.624;2023-11-18T01:42:14;13.57;;;9.93;;
55461;SDS011;41327;45.102;20.624;2023-11-18T01:44:40;11.90;;;6.78;;
55461;SDS011;41327;45.102;20.624;2023-11-18T01:47:06;10.27;;;6.32;;
55461;SDS011;41327;45.102;20.624;2023-11-18T01:49:32;7.75;;;4.57;;
55461;SDS011;41327;45.102;20.624;2023-11-18T01:52:02;10.50;;;6.88;;
55461;SDS011;41327;45.102;20.624;2023-11-18T01:54:27;9.98;;;7.05;;
55461;SDS011;41327;45.102;20.624;2023-11-18T01:56:54;11.73;;;7.43;;
55461;SDS011;41327;45.102;20.624;2023-11-18T01:59:20;13.93;;;7.97;;
55461;SDS011;41327;45.102;20.624;2023-11-18T02:01:50;9.85;;;7.55;;
55461;SDS011;41327;45.102;20.624;2023-11-18T02:04:18;11.25;;;6.63;;
55461;SDS011;41327;45.102;20.624;2023-11-18T02:06:45;11.35;;;7.45;;
55461;SDS011;41327;45.102;20.624;2023-11-18T02:09:13;8.77;;;5.63;;
55461;SDS011;41327;45.102;20.624;2023-11-18T02:11:53;12.48;;;6.50;;
55461;SDS011;41327;45.102;20.624;2023-11-18T02:14:20;9.88;;;5.60;;
55461;SDS011;41327;45.102;20.624;2023-11-18T02:16:48;10.77;;;5.97;;
55461;SDS011;41327;45.102;20.624;2023-11-18T02:19:21;10.52;;;5.25;;
55461;SDS011;41327;45.102;20.624;2023-11-18T02:21:49;10.32;;;7.18;;
55461;SDS011;41327;45.102;20.624;2023-11-18T02:24:29;12.45;;;6.75;;
55461;SDS011;41327;45.102;20.624;2023-11-18T02:26:59;17.52;;;9.73;;
55461;SDS011;41327;45.102;20.624;2023-11-18T02:29:26;32.97;;;20.05;;
55461;SDS011;41327;45.102;20.624;2023-11-18T02:32:03;109.00;;;51.10;;
55461;SDS011;41327;45.102;20.624;2023-11-18T02:37:47;41.90;;;23.17;;
55461;SDS011;41327;45.102;20.624;2023-11-18T02:40:27;46.75;;;24.95;;
55461;SDS011;41327;45.102;20.624;2023-11-18T02:42:57;68.57;;;33.00;;
55461;SDS011;41327;45.102;20.624;2023-11-18T02:45:24;44.38;;;23.63;;
55461;SDS011;41327;45.102;20.624;2023-11-18T02:47:49;98.82;;;43.92;;
55461;SDS011;41327;45.102;20.624;2023-11-18T02:50:15;70.70;;;30.48;;
55461;SDS011;41327;45.102;20.624;2023-11-18T02:52:40;80.85;;;38.78;;
55461;SDS011;41327;45.102;20.624;2023-11-18T02:55:06;198.38;;;78.95;;
55461;SDS011;41327;45.102;20.624;2023-11-18T02:57:33;82.45;;;35.20;;
55461;SDS011;41327;45.102;20.624;2023-11-18T03:00:02;193.70;;;77.05;;
55461;SDS011;41327;45.102;20.624;2023-11-18T03:02:36;105.05;;;44.65;;
55461;SDS011;41327;45.102;20.624;2023-11-18T03:05:05;33.65;;;15.30;;
55461;SDS011;41327;45.102;20.624;2023-11-18T03:07:32;108.95;;;47.78;;
55461;SDS011;41327;45.102;20.624;2023-11-18T03:09:58;114.93;;;51.70;;
55461;SDS011;41327;45.102;20.624;2023-11-18T03:12:24;105.68;;;39.38;;
55461;SDS011;41327;45.102;20.624;2023-11-18T03:14:53;67.15;;;31.85;;
55461;SDS011;41327;45.102;20.624;2023-11-18T03:17:19;101.68;;;44.95;;
55461;SDS011;41327;45.102;20.624;2023-11-18T03:19:45;40.65;;;19.83;;
55461;SDS011;41327;45.102;20.624;2023-11-18T03:22:11;35.70;;;15.50;;
55461;SDS011;41327;45.102;20.624;2023-11-18T03:24:38;25.75;;;15.80;;
55461;SDS011;41327;45.102;20.624;2023-11-18T03:27:04;19.05;;;11.10;;
55461;SDS011;41327;45.102;20.624;2023-11-18T03:29:29;11.32;;;7.28;;
55461;SDS011;41327;45.102;20.624;2023-11-18T03:31:55;10.50;;;7.22;;
55461;SDS011;41327;45.102;20.624;2023-11-18T03:34:21;13.20;;;7.32;;
55461;SDS011;41327;45.102;20.624;2023-11-18T03:36:46;11.68;;;6.72;;
55461;SDS011;41327;45.102;20.624;2023-11-18T03:39:12;12.00;;;6.93;;
55461;SDS011;41327;45.102;20.624;2023-11-18T03:41:39;14.90;;;6.38;;
55461;SDS011;41327;45.102;20.624;2023-11-18T03:44:05;12.85;;;5.75;;
55461;SDS011;41327;45.102;20.624;2023-11-18T03:46:30;9.05;;;5.47;;
55461;SDS011;41327;45.102;20.624;2023-11-18T03:48:59;7.70;;;4.88;;
55461;SDS011;41327;45.102;20.624;2023-11-18T03:51:26;9.00;;;5.32;;
55461;SDS011;41327;45.102;20.624;2023-11-18T03:53:52;10.45;;;5.28;;
55461;SDS011;41327;45.102;20.624;2023-11-18T03:56:18;10.40;;;6.57;;
55461;SDS011;41327;45.102;20.624;2023-11-18T03:58:43;11.00;;;6.28;;
55461;SDS011;41327;45.102;20.624;2023-11-18T04:01:09;10.02;;;5.28;;
55461;SDS011;41327;45.102;20.624;2023-11-18T04:03:36;10.75;;;5.57;;
55461;SDS011;41327;45.102;20.624;2023-11-18T04:06:01;8.48;;;5.40;;
55461;SDS011;41327;45.102;20.624;2023-11-18T04:08:28;12.02;;;6.32;;
55461;SDS011;41327;45.102;20.624;2023-11-18T04:10:54;8.98;;;6.07;;
55461;SDS011;41327;45.102;20.624;2023-11-18T04:13:19;6.93;;;4.47;;
55461;SDS011;41327;45.102;20.624;2023-11-18T04:15:45;7.03;;;4.20;;
55461;SDS011;41327;45.102;20.624;2023-11-18T04:18:10;11.25;;;6.25;;
55461;SDS011;41327;45.102;20.624;2023-11-18T04:20:36;10.30;;;5.78;;
55461;SDS011;41327;45.102;20.624;2023-11-18T04:23:02;12.85;;;7.60;;
55461;SDS011;41327;45.102;20.624;2023-11-18T04:25:27;10.80;;;6.13;;
55461;SDS011;41327;45.102;20.624;2023-11-18T04:27:53;6.68;;;4.55;;
55461;SDS011;41327;45.102;20.624;2023-11-18T04:30:18;8.23;;;5.82;;
55461;SDS011;41327;45.102;20.624;2023-11-18T04:32:44;8.65;;;4.75;;
55461;SDS011;41327;45.102;20.624;2023-11-18T04:35:09;8.15;;;5.15;;
55461;SDS011;41327;45.102;20.624;2023-11-18T04:37:37;6.03;;;4.25;;
55461;SDS011;41327;45.102;20.624;2023-11-18T04:40:03;14.32;;;4.10;;
55461;SDS011;41327;45.102;20.624;2023-11-18T04:42:29;4.90;;;4.18;;
55461;SDS011;41327;45.102;20.624;2023-11-18T04:44:55;4.15;;;3.38;;
55461;SDS011;41327;45.102;20.624;2023-11-18T04:47:21;7.80;;;4.30;;
55461;SDS011;41327;45.102;20.624;2023-11-18T04:49:47;6.35;;;3.95;;
55461;SDS011;41327;45.102;20.624;2023-11-18T04:52:12;6.22;;;3.78;;
55461;SDS011;41327;45.102;20.624;2023-11-18T04:54:38;9.00;;;5.68;;
55461;SDS011;41327;45.102;20.624;2023-11-18T04:57:03;6.60;;;4.32;;
55461;SDS011;41327;45.102;20.624;2023-11-18T04:59:29;8.07;;;5.65;;
55461;SDS011;41327;45.102;20.624;2023-11-18T05:01:56;5.50;;;3.83;;
55461;SDS011;41327;45.102;20.624;2023-11-18T05:04:21;4.18;;;3.22;;
55461;SDS011;41327;45.102;20.624;2023-11-18T05:06:47;7.60;;;4.80;;
55461;SDS011;41327;45.102;20.624;2023-11-18T05:09:12;6.72;;;4.43;;
55461;SDS011;41327;45.102;20.624;2023-11-18T05:11:38;7.07;;;4.28;;
55461;SDS011;41327;45.102;20.624;2023-11-18T05:14:04;6.80;;;5.13;;
55461;SDS011;41327;45.102;20.624;2023-11-18T05:16:29;5.15;;;3.30;;
55461;SDS011;41327;45.102;20.624;2023-11-18T05:18:55;5.47;;;3.67;;
55461;SDS011;41327;45.102;20.624;2023-11-18T05:21:21;4.97;;;4.22;;
55461;SDS011;41327;45.102;20.624;2023-11-18T05:23:46;7.47;;;4.88;;
55461;SDS011;41327;45.102;20.624;2023-11-18T05:26:12;4.90;;;4.22;;
55461;SDS011;41327;45.102;20.624;2023-11-18T05:28:38;5.80;;;3.53;;
55461;SDS011;41327;45.102;20.624;2023-11-18T05:31:04;6.30;;;4.65;;
55461;SDS011;41327;45.102;20.624;2023-11-18T05:33:30;4.75;;;3.30;;
55461;SDS011;41327;45.102;20.624;2023-11-18T05:35:56;5.93;;;3.97;;
55461;SDS011;41327;45.102;20.624;2023-11-18T05:38:22;7.60;;;5.38;;
55461;SDS011;41327;45.102;20.624;2023-11-18T05:40:49;7.10;;;4.20;;
55461;SDS011;41327;45.102;20.624;2023-11-18T05:43:28;7.60;;;4.75;;
55461;SDS011;41327;45.102;20.624;2023-11-18T05:45:56;4.88;;;3.28;;
55461;SDS011;41327;45.102;20.624;2023-11-18T05:48:45;3.10;;;2.58;;
55461;SDS011;41327;45.102;20.624;2023-11-18T05:51:12;5.32;;;4.20;;
55461;SDS011;41327;45.102;20.624;2023-11-18T05:53:41;4.60;;;3.53;;
55461;SDS011;41327;45.102;20.624;2023-11-18T05:56:10;5.00;;;3.38;;
55461;SDS011;41327;45.102;20.624;2023-11-18T05:58:36;6.88;;;3.97;;
55461;SDS011;41327;45.102;20.624;2023-11-18T06:01:02;7.43;;;4.13;;
55461;SDS011;41327;45.102;20.624;2023-11-18T06:03:28;7.28;;;3.55;;
55461;SDS011;41327;45.102;20.624;2023-11-18T06:05:53;27.90;;;14.50;;
55461;SDS011;41327;45.102;20.624;2023-11-18T06:08:19;89.50;;;35.10;;
55461;SDS011;41327;45.102;20.624;2023-11-18T06:10:48;31.58;;;15.25;;
55461;SDS011;41327;45.102;20.624;2023-11-18T06:13:14;6.78;;;4.60;;
55461;SDS011;41327;45.102;20.624;2023-11-18T06:15:41;9.32;;;5.90;;
55461;SDS011;41327;45.102;20.624;2023-11-18T06:18:08;6.50;;;4.90;;
55461;SDS011;41327;45.102;20.624;2023-11-18T06:20:34;6.65;;;4.38;;
55461;SDS011;41327;45.102;20.624;2023-11-18T06:23:00;5.57;;;3.65;;
55461;SDS011;41327;45.102;20.624;2023-11-18T06:25:26;6.82;;;4.95;;
55461;SDS011;41327;45.102;20.624;2023-11-18T06:27:52;4.47;;;3.05;;
55461;SDS011;41327;45.102;20.624;2023-11-18T06:30:20;6.30;;;3.90;;
55461;SDS011;41327;45.102;20.624;2023-11-18T06:32:47;6.57;;;4.45;;
55461;SDS011;41327;45.102;20.624;2023-11-18T06:35:13;5.72;;;4.22;;
55461;SDS011;41327;45.102;20.624;2023-11-18T06:37:41;6.15;;;4.57;;
55461;SDS011;41327;45.102;20.624;2023-11-18T06:40:08;5.80;;;3.70;;
55461;SDS011;41327;45.102;20.624;2023-11-18T06:42:43;8.05;;;4.65;;
55461;SDS011;41327;45.102;20.624;2023-11-18T06:45:12;10.32;;;6.22;;
55461;SDS011;41327;45.102;20.624;2023-11-18T06:47:38;14.18;;;9.57;;
55461;SDS011;41327;45.102;20.624;2023-11-18T06:50:08;5.72;;;4.97;;
55461;SDS011;41327;45.102;20.624;2023-11-18T06:52:36;8.30;;;4.50;;
55461;SDS011;41327;45.102;20.624;2023-11-18T06:55:03;15.18;;;5.97;;
55461;SDS011;41327;45.102;20.624;2023-11-18T06:57:29;5.93;;;4.32;;
55461;SDS011;41327;45.102;20.624;2023-11-18T06:59:55;6.93;;;4.47;;
55461;SDS011;41327;45.102;20.624;2023-11-18T07:02:21;9.40;;;4.80;;
55461;SDS011;41327;45.102;20.624;2023-11-18T07:04:47;11.90;;;5.63;;
55461;SDS011;41327;45.102;20.624;2023-11-18T07:07:12;9.02;;;5.15;;
55461;SDS011;41327;45.102;20.624;2023-11-18T07:09:39;10.35;;;5.15;;
55461;SDS011;41327;45.102;20.624;2023-11-18T07:12:04;6.50;;;3.90;;
55461;SDS011;41327;45.102;20.624;2023-11-18T07:14:30;8.13;;;4.03;;
55461;SDS011;41327;45.102;20.624;2023-11-18T07:16:56;6.80;;;4.78;;
55461;SDS011;41327;45.102;20.624;2023-11-18T07:19:21;4.95;;;3.85;;
55461;SDS011;41327;45.102;20.624;2023-11-18T07:21:49;6.75;;;4.60;;
55461;SDS011;41327;45.102;20.624;2023-11-18T07:24:16;11.88;;;6.68;;
55461;SDS011;41327;45.102;20.624;2023-11-18T07:26:45;18.48;;;8.98;;
55461;SDS011;41327;45.102;20.624;2023-11-18T07:29:11;16.00;;;8.23;;
55461;SDS011;41327;45.102;20.624;2023-11-18T07:31:38;6.03;;;3.70;;
55461;SDS011;41327;45.102;20.624;2023-11-18T07:34:03;4.82;;;3.03;;
55461;SDS011;41327;45.102;20.624;2023-11-18T07:36:30;7.88;;;4.50;;
55461;SDS011;41327;45.102;20.624;2023-11-18T07:38:57;6.00;;;4.30;;
55461;SDS011;41327;45.102;20.624;2023-11-18T07:41:26;6.38;;;4.18;;
55461;SDS011;41327;45.102;20.624;2023-11-18T07:43:53;14.90;;;7.00;;
55461;SDS011;41327;45.102;20.624;2023-11-18T07:46:20;9.15;;;5.97;;
55461;SDS011;41327;45.102;20.624;2023-11-18T07:48:49;9.52;;;4.55;;
55461;SDS011;41327;45.102;20.624;2023-11-18T07:51:20;7.15;;;5.28;;
55461;SDS011;41327;45.102;20.624;2023-11-18T07:53:47;11.05;;;6.88;;
55461;SDS011;41327;45.102;20.624;2023-11-18T07:56:13;7.53;;;4.07;;
55461;SDS011;41327;45.102;20.624;2023-11-18T07:58:41;4.60;;;3.78;;
55461;SDS011;41327;45.102;20.624;2023-11-18T08:01:10;4.32;;;3.75;;
55461;SDS011;41327;45.102;20.624;2023-11-18T08:03:36;4.22;;;3.30;;
55461;SDS011;41327;45.102;20.624;2023-11-18T08:06:03;28.77;;;11.55;;
55461;SDS011;41327;45.102;20.624;2023-11-18T08:08:33;9.57;;;6.57;;
55461;SDS011;41327;45.102;20.624;2023-11-18T08:10:59;9.02;;;6.32;;
55461;SDS011;41327;45.102;20.624;2023-11-18T08:13:25;8.07;;;4.80;;
55461;SDS011;41327;45.102;20.624;2023-11-18T08:15:51;11.15;;;5.72;;
55461;SDS011;41327;45.102;20.624;2023-11-18T08:18:18;11.40;;;4.80;;
55461;SDS011;41327;45.102;20.624;2023-11-18T08:20:46;7.20;;;4.53;;
55461;SDS011;41327;45.102;20.624;2023-11-18T08:23:13;11.95;;;6.32;;
55461;SDS011;41327;45.102;20.624;2023-11-18T08:25:39;10.43;;;6.97;;
55461;SDS011;41327;45.102;20.624;2023-11-18T08:28:05;6.60;;;3.88;;
55461;SDS011;41327;45.102;20.624;2023-11-18T08:30:32;9.23;;;5.45;;
55461;SDS011;41327;45.102;20.624;2023-11-18T08:33:01;14.95;;;7.75;;
55461;SDS011;41327;45.102;20.624;2023-11-18T08:35:29;8.93;;;5.82;;
55461;SDS011;41327;45.102;20.624;2023-11-18T08:37:56;23.65;;;21.15;;
55461;SDS011;41327;45.102;20.624;2023-11-18T08:40:24;6.57;;;4.18;;
55461;SDS011;41327;45.102;20.624;2023-11-18T08:42:53;19.35;;;9.60;;
55461;SDS011;41327;45.102;20.624;2023-11-18T08:45:21;40.08;;;19.25;;
55461;SDS011;41327;45.102;20.624;2023-11-18T08:47:59;23.85;;;19.42;;
55461;SDS011;41327;45.102;20.624;2023-11-18T08:50:26;12.73;;;8.68;;
55461;SDS011;41327;45.102;20.624;2023-11-18T08:52:53;7.75;;;4.60;;
55461;SDS011;41327;45.102;20.624;2023-11-18T08:55:28;7.25;;;4.47;;
55461;SDS011;41327;45.102;20.624;2023-11-18T08:58:04;7.00;;;3.95;;
55461;SDS011;41327;45.102;20.624;2023-11-18T09:00:42;11.10;;;4.32;;
55461;SDS011;41327;45.102;20.624;2023-11-18T09:03:19;7.80;;;4.30;;
55461;SDS011;41327;45.102;20.624;2023-11-18T09:05:50;9.48;;;4.88;;
55461;SDS011;41327;45.102;20.624;2023-11-18T09:08:28;5.15;;;3.88;;
55461;SDS011;41327;45.102;20.624;2023-11-18T09:10:58;11.85;;;6.10;;
55461;SDS011;41327;45.102;20.624;2023-11-18T09:13:24;6.13;;;3.67;;
55461;SDS011;41327;45.102;20.624;2023-11-18T09:15:57;5.18;;;3.47;;
55461;SDS011;41327;45.102;20.624;2023-11-18T09:18:33;5.95;;;2.88;;
55461;SDS011;41327;45.102;20.624;2023-11-18T09:21:00;11.02;;;5.95;;
55461;SDS011;41327;45.102;20.624;2023-11-18T09:23:30;8.52;;;4.70;;
55461;SDS011;41327;45.102;20.624;2023-11-18T09:25:57;8.50;;;4.43;;
55461;SDS011;41327;45.102;20.624;2023-11-18T09:28:23;6.70;;;3.55;;
55461;SDS011;41327;45.102;20.624;2023-11-18T09:30:49;6.13;;;3.38;;
55461;SDS011;41327;45.102;20.624;2023-11-18T09:33:22;7.03;;;4.30;;
55461;SDS011;41327;45.102;20.624;2023-11-18T09:35:57;7.43;;;3.88;;
55461;SDS011;41327;45.102;20.624;2023-11-18T09:38:32;13.75;;;5.78;;
55461;SDS011;41327;45.102;20.624;2023-11-18T09:41:02;6.72;;;4.32;;
55461;SDS011;41327;45.102;20.624;2023-11-18T09:43:29;5.57;;;3.72;;
55461;SDS011;41327;45.102;20.624;2023-11-18T09:46:01;7.95;;;5.20;;
55461;SDS011;41327;45.102;20.624;2023-11-18T09:48:33;5.57;;;4.00;;
55461;SDS011;41327;45.102;20.624;2023-11-18T09:51:05;6.40;;;3.70;;
55461;SDS011;41327;45.102;20.624;2023-11-18T09:53:32;7.95;;;4.88;;
55461;SDS011;41327;45.102;20.624;2023-11-18T09:56:08;7.15;;;4.70;;
55461;SDS011;41327;45.102;20.624;2023-11-18T09:58:45;4.43;;;2.30;;
55461;SDS011;41327;45.102;20.624;2023-11-18T10:01:13;9.48;;;5.70;;
55461;SDS011;41327;45.102;20.624;2023-11-18T10:03:43;9.30;;;5.13;;
55461;SDS011;41327;45.102;20.624;2023-11-18T10:06:11;6.72;;;3.75;;
55461;SDS011;41327;45.102;20.624;2023-11-18T10:08:40;6.70;;;3.47;;
55461;SDS011;41327;45.102;20.624;2023-11-18T10:11:06;10.43;;;4.32;;
55461;SDS011;41327;45.102;20.624;2023-11-18T10:13:34;6.65;;;4.38;;
55461;SDS011;41327;45.102;20.624;2023-11-18T10:16:06;10.45;;;4.75;;
55461;SDS011;41327;45.102;20.624;2023-11-18T10:18:33;8.93;;;4.55;;
55461;SDS011;41327;45.102;20.624;2023-11-18T10:21:01;6.38;;;4.35;;
55461;SDS011;41327;45.102;20.624;2023-11-18T10:23:29;9.70;;;4.07;;
55461;SDS011;41327;45.102;20.624;2023-11-18T10:25:58;8.88;;;3.47;;
55461;SDS011;41327;45.102;20.624;2023-11-18T10:28:29;8.00;;;4.60;;
55461;SDS011;41327;45.102;20.624;2023-11-18T10:31:01;6.10;;;4.18;;
55461;SDS011;41327;45.102;20.624;2023-11-18T10:33:34;5.68;;;3.20;;
55461;SDS011;41327;45.102;20.624;2023-11-18T10:36:01;9.55;;;4.93;;
55461;SDS011;41327;45.102;20.624;2023-11-18T10:38:32;8.05;;;4.85;;
55461;SDS011;41327;45.102;20.624;2023-11-18T10:41:08;6.80;;;5.05;;
55461;SDS011;41327;45.102;20.624;2023-11-18T10:43:34;2.75;;;1.77;;
55461;SDS011;41327;45.102;20.624;2023-11-18T10:46:13;9.88;;;3.95;;
55461;SDS011;41327;45.102;20.624;2023-11-18T10:48:43;13.85;;;7.28;;
55461;SDS011;41327;45.102;20.624;2023-11-18T10:51:21;24.40;;;14.95;;
55461;SDS011;41327;45.102;20.624;2023-11-18T10:53:52;12.73;;;5.60;;
55461;SDS011;41327;45.102;20.624;2023-11-18T10:56:22;16.33;;;9.98;;
55461;SDS011;41327;45.102;20.624;2023-11-18T10:59:06;18.67;;;12.20;;
55461;SDS011;41327;45.102;20.624;2023-11-18T11:01:38;7.05;;;5.47;;
55461;SDS011;41327;45.102;20.624;2023-11-18T11:06:35;9.32;;;5.32;;
55461;SDS011;41327;45.102;20.624;2023-11-18T11:09:26;5.40;;;3.53;;
55461;SDS011;41327;45.102;20.624;2023-11-18T11:12:02;6.10;;;3.50;;
55461;SDS011;41327;45.102;20.624;2023-11-18T11:14:41;10.98;;;4.43;;
55461;SDS011;41327;45.102;20.624;2023-11-18T11:17:29;11.38;;;6.20;;
55461;SDS011;41327;45.102;20.624;2023-11-18T11:22:38;16.15;;;6.88;;
55461;SDS011;41327;45.102;20.624;2023-11-18T11:25:14;10.38;;;5.30;;
55461;SDS011;41327;45.102;20.624;2023-11-18T11:27:50;13.27;;;6.78;;
55461;SDS011;41327;45.102;20.624;2023-11-18T11:36:06;7.18;;;3.65;;
55461;SDS011;41327;45.102;20.624;2023-11-18T11:38:37;9.73;;;5.80;;
55461;SDS011;41327;45.102;20.624;2023-11-18T11:41:03;10.07;;;5.32;;
55461;SDS011;41327;45.102;20.624;2023-11-18T11:43:30;9.57;;;3.65;;
55461;SDS011;41327;45.102;20.624;2023-11-18T11:46:00;7.28;;;4.75;;
55461;SDS011;41327;45.102;20.624;2023-11-18T11:48:28;7.93;;;4.93;;
55461;SDS011;41327;45.102;20.624;2023-11-18T11:54:06;18.47;;;13.57;;
55461;SDS011;41327;45.102;20.624;2023-11-18T11:59:57;12.10;;;6.70;;
55461;SDS011;41327;45.102;20.624;2023-11-18T12:02:05;21.65;;;12.23;;
55461;SDS011;41327;45.102;20.624;2023-11-18T12:04:33;12.13;;;7.10;;
55461;SDS011;41327;45.102;20.624;2023-11-18T12:07:03;9.02;;;4.88;;
55461;SDS011;41327;45.102;20.624;2023-11-18T12:09:29;12.40;;;5.78;;
55461;SDS011;41327;45.102;20.624;2023-11-18T12:11:58;6.78;;;4.50;;
55461;SDS011;41327;45.102;20.624;2023-11-18T12:14:24;4.38;;;3.58;;
55461;SDS011;41327;45.102;20.624;2023-11-18T12:16:59;8.30;;;4.90;;
55461;SDS011;41327;45.102;20.624;2023-11-18T12:19:38;8.32;;;5.30;;
55461;SDS011;41327;45.102;20.624;2023-11-18T12:22:14;9.00;;;4.28;;
55461;SDS011;41327;45.102;20.624;2023-11-18T12:24:46;9.82;;;4.82;;
55461;SDS011;41327;45.102;20.624;2023-11-18T12:27:44;7.47;;;3.90;;
55461;SDS011;41327;45.102;20.624;2023-11-18T12:32:57;8.18;;;4.47;;
55461;SDS011;41327;45.102;20.624;2023-11-18T12:35:24;16.60;;;7.85;;
55461;SDS011;41327;45.102;20.624;2023-11-18T12:40:56;6.50;;;3.78;;
55461;SDS011;41327;45.102;20.624;2023-11-18T12:49:21;4.18;;;2.63;;
55461;SDS011;41327;45.102;20.624;2023-11-18T12:51:54;8.32;;;4.18;;
55461;SDS011;41327;45.102;20.624;2023-11-18T12:54:20;7.28;;;3.30;;
55461;SDS011;41327;45.102;20.624;2023-11-18T12:56:47;10.20;;;5.00;;
55461;SDS011;41327;45.102;20.624;2023-11-18T12:59:18;49.08;;;23.25;;
55461;SDS011;41327;45.102;20.624;2023-11-18T13:01:48;21.77;;;12.75;;
55461;SDS011;41327;45.102;20.624;2023-11-18T13:04:21;14.55;;;8.88;;
55461;SDS011;41327;45.102;20.624;2023-11-18T13:06:49;16.10;;;9.00;;
55461;SDS011;41327;45.102;20.624;2023-11-18T13:09:18;8.63;;;4.57;;
55461;SDS011;41327;45.102;20.624;2023-11-18T13:12:00;15.70;;;8.50;;
55461;SDS011;41327;45.102;20.624;2023-11-18T13:14:32;9.98;;;5.75;;
55461;SDS011;41327;45.102;20.624;2023-11-18T13:17:08;9.70;;;5.55;;
55461;SDS011;41327;45.102;20.624;2023-11-18T13:19:36;28.63;;;13.95;;
55461;SDS011;41327;45.102;20.624;2023-11-18T13:22:02;15.98;;;9.20;;
55461;SDS011;41327;45.102;20.624;2023-11-18T13:24:32;25.88;;;12.07;;
55461;SDS011;41327;45.102;20.624;2023-11-18T13:26:58;22.63;;;11.45;;
55461;SDS011;41327;45.102;20.624;2023-11-18T13:29:28;12.40;;;6.90;;
55461;SDS011;41327;45.102;20.624;2023-11-18T13:31:54;7.47;;;4.78;;
55461;SDS011;41327;45.102;20.624;2023-11-18T13:34:21;9.82;;;6.32;;
55461;SDS011;41327;45.102;20.624;2023-11-18T13:36:47;10.93;;;6.18;;
55461;SDS011;41327;45.102;20.624;2023-11-18T13:39:20;10.32;;;5.55;;
55461;SDS011;41327;45.102;20.624;2023-11-18T13:41:49;9.30;;;6.28;;
55461;SDS011;41327;45.102;20.624;2023-11-18T13:47:00;35.40;;;16.67;;
55461;SDS011;41327;45.102;20.624;2023-11-18T13:49:29;36.92;;;16.10;;
55461;SDS011;41327;45.102;20.624;2023-11-18T13:51:55;31.88;;;15.18;;
55461;SDS011;41327;45.102;20.624;2023-11-18T13:54:23;18.00;;;7.80;;
55461;SDS011;41327;45.102;20.624;2023-11-18T13:56:50;20.10;;;9.85;;
55461;SDS011;41327;45.102;20.624;2023-11-18T13:59:21;28.00;;;11.07;;
55461;SDS011;41327;45.102;20.624;2023-11-18T14:01:49;38.92;;;19.30;;
55461;SDS011;41327;45.102;20.624;2023-11-18T14:04:15;21.70;;;10.55;;
55461;SDS011;41327;45.102;20.624;2023-11-18T14:06:40;21.63;;;12.50;;
55461;SDS011;41327;45.102;20.624;2023-11-18T14:09:07;9.48;;;5.60;;
55461;SDS011;41327;45.102;20.624;2023-11-18T14:11:35;12.50;;;6.47;;
55461;SDS011;41327;45.102;20.624;2023-11-18T14:14:00;11.02;;;5.35;;
55461;SDS011;41327;45.102;20.624;2023-11-18T14:16:26;22.35;;;10.00;;
55461;SDS011;41327;45.102;20.624;2023-11-18T14:18:51;22.30;;;10.00;;
55461;SDS011;41327;45.102;20.624;2023-11-18T14:21:17;11.77;;;5.85;;
55461;SDS011;41327;45.102;20.624;2023-11-18T14:23:43;15.82;;;7.47;;
55461;SDS011;41327;45.102;20.624;2023-11-18T14:26:09;7.43;;;4.50;;
55461;SDS011;41327;45.102;20.624;2023-11-18T14:28:35;5.50;;;3.17;;
55461;SDS011;41327;45.102;20.624;2023-11-18T14:31:01;9.38;;;5.07;;
55461;SDS011;41327;45.102;20.624;2023-11-18T14:33:32;15.82;;;7.15;;
55461;SDS011;41327;45.102;20.624;2023-11-18T14:35:59;16.65;;;6.88;;
55461;SDS011;41327;45.102;20.624;2023-11-18T14:38:26;9.82;;;4.88;;
55461;SDS011;41327;45.102;20.624;2023-11-18T14:40:52;14.90;;;6.63;;
55461;SDS011;41327;45.102;20.624;2023-11-18T14:43:19;14.98;;;6.63;;
55461;SDS011;41327;45.102;20.624;2023-11-18T14:45:45;11.77;;;5.25;;
55461;SDS011;41327;45.102;20.624;2023-11-18T14:48:11;11.85;;;6.80;;
55461;SDS011;41327;45.102;20.624;2023-11-18T14:50:38;16.42;;;7.55;;
55461;SDS011;41327;45.102;20.624;2023-11-18T14:53:03;12.02;;;6.13;;
55461;SDS011;41327;45.102;20.624;2023-11-18T14:55:31;11.57;;;5.38;;
55461;SDS011;41327;45.102;20.624;2023-11-18T14:57:57;10.32;;;4.78;;
55461;SDS011;41327;45.102;20.624;2023-11-18T15:00:23;7.68;;;3.95;;
55461;SDS011;41327;45.102;20.624;2023-11-18T15:02:53;13.40;;;5.18;;
55461;SDS011;41327;45.102;20.624;2023-11-18T15:05:22;11.48;;;5.43;;